Hovedside
METAR-TAF:

METAR-TAF

Lufthavner :

Port Moresby, Papua Ny-Guinea

breddegrad: 09-26S, lengdegrad: 147-13E, høyde over havet: 38 m

Gjeldene værobservasjon

Denne rapporten ble laget for 2 timer og 52 minutter siden, klokken 15:00 UTC
Vind 4 kt fra Nordvest
Temperatur 25°C
Luftfuktighet 89%
Trykk 1009 hPa
Sikt 10 km eller mer
Få skyer i en høyde av 2000 ft
Spredte skyer i en høyde av 4000 ft

METAR: AYPY 211500Z 32004KT 9999 FEW020 SCT040 25/23 Q1009

Tid: 03:52 (17:52 UTC)

Varsel

Denne rapporten ble laget for 14 timer og 22 minutter siden, klokken 03:30 UTC
Varsel gyldig fra 21. klokken 06 UTC til 22. klokken 06 UTC
Vind 8 kt fra Sør-sørøst
Sikt 10 km eller mer
Spredte skyer i en høyde av 1800 ft
Brutte skyer i en høyde av 4000 ft
lette regnbyger
Fra 21. klokken 0900 UTC
Vind 5 kt fra Sør-sørøst
Sikt 10 km eller mer
Spredte skyer i en høyde av 1600 ft
Brutte skyer i en høyde av 4000 ft

TAF: AYPY 210330Z 2106/2206 16008KT 9999 -SHRA SCT018 BKN040 FM210900 15005KT 9999 -R ADZ Z SCT016 BKN040

Værobservasjoner og værvarsel for over 4000 flyplasser (METAR- og TAF-rapporter).

Tilgjengelige stasjoner er representert av de røde og gule prikkene på kartet.

Hold musepekeren over prikken for å se navnet på stasjonen.

Klikk så for å se værobservasjoner og -varsler.

For å forandre kartet kan du klikke på den grønne knappen med svart kryss for å zoome inn, på den grønne knappen med strek for å zoome ut, eller på de grønne pilene for å se tilstøtende kart.


METAR-TAF: